sensor_id;sensor_type;location;lat;lon;timestamp;P1;durP1;ratioP1;P2;durP2;ratioP2
72601;SDS011;60644;55.858;37.390;2023-07-08T00:01:37;12.70;;;7.65;;
72601;SDS011;60644;55.858;37.390;2023-07-08T00:04:02;13.80;;;8.90;;
72601;SDS011;60644;55.858;37.390;2023-07-08T00:06:29;15.20;;;8.68;;
72601;SDS011;60644;55.858;37.390;2023-07-08T00:08:54;12.13;;;8.40;;
72601;SDS011;60644;55.858;37.390;2023-07-08T00:11:21;15.07;;;7.88;;
72601;SDS011;60644;55.858;37.390;2023-07-08T00:13:46;15.27;;;8.65;;
72601;SDS011;60644;55.858;37.390;2023-07-08T00:16:13;13.80;;;8.40;;
72601;SDS011;60644;55.858;37.390;2023-07-08T00:18:39;13.85;;;8.48;;
72601;SDS011;60644;55.858;37.390;2023-07-08T00:21:08;14.20;;;8.33;;
72601;SDS011;60644;55.858;37.390;2023-07-08T00:23:34;16.02;;;8.23;;
72601;SDS011;60644;55.858;37.390;2023-07-08T00:26:01;13.45;;;8.45;;
72601;SDS011;60644;55.858;37.390;2023-07-08T00:28:27;14.10;;;8.10;;
72601;SDS011;60644;55.858;37.390;2023-07-08T00:30:53;13.88;;;8.82;;
72601;SDS011;60644;55.858;37.390;2023-07-08T00:33:19;13.98;;;8.30;;
72601;SDS011;60644;55.858;37.390;2023-07-08T00:35:45;14.93;;;8.83;;
72601;SDS011;60644;55.858;37.390;2023-07-08T00:38:23;15.60;;;8.82;;
72601;SDS011;60644;55.858;37.390;2023-07-08T00:43:50;13.90;;;8.67;;
72601;SDS011;60644;55.858;37.390;2023-07-08T00:48:56;13.02;;;8.35;;
72601;SDS011;60644;55.858;37.390;2023-07-08T00:51:23;13.77;;;8.25;;
72601;SDS011;60644;55.858;37.390;2023-07-08T00:53:49;15.73;;;9.00;;
72601;SDS011;60644;55.858;37.390;2023-07-08T00:56:16;15.40;;;9.27;;
72601;SDS011;60644;55.858;37.390;2023-07-08T00:58:44;14.00;;;8.88;;
72601;SDS011;60644;55.858;37.390;2023-07-08T01:01:11;14.65;;;8.88;;
72601;SDS011;60644;55.858;37.390;2023-07-08T01:04:11;15.03;;;9.10;;
72601;SDS011;60644;55.858;37.390;2023-07-08T01:06:30;15.57;;;8.57;;
72601;SDS011;60644;55.858;37.390;2023-07-08T01:08:58;14.05;;;9.35;;
72601;SDS011;60644;55.858;37.390;2023-07-08T01:11:24;14.00;;;8.82;;
72601;SDS011;60644;55.858;37.390;2023-07-08T01:13:50;16.90;;;9.83;;
72601;SDS011;60644;55.858;37.390;2023-07-08T01:16:16;14.63;;;9.48;;
72601;SDS011;60644;55.858;37.390;2023-07-08T01:18:43;15.65;;;9.70;;
72601;SDS011;60644;55.858;37.390;2023-07-08T01:23:56;17.73;;;10.53;;
72601;SDS011;60644;55.858;37.390;2023-07-08T01:26:24;16.58;;;9.68;;
72601;SDS011;60644;55.858;37.390;2023-07-08T01:28:52;16.17;;;10.43;;
72601;SDS011;60644;55.858;37.390;2023-07-08T01:31:19;15.02;;;9.98;;
72601;SDS011;60644;55.858;37.390;2023-07-08T01:33:44;16.07;;;10.33;;
72601;SDS011;60644;55.858;37.390;2023-07-08T01:36:11;15.27;;;10.02;;
72601;SDS011;60644;55.858;37.390;2023-07-08T01:38:36;17.37;;;10.60;;
72601;SDS011;60644;55.858;37.390;2023-07-08T01:41:04;16.08;;;9.88;;
72601;SDS011;60644;55.858;37.390;2023-07-08T01:43:29;17.52;;;10.32;;
72601;SDS011;60644;55.858;37.390;2023-07-08T01:45:55;16.47;;;9.70;;
72601;SDS011;60644;55.858;37.390;2023-07-08T01:48:24;15.35;;;9.73;;
72601;SDS011;60644;55.858;37.390;2023-07-08T01:51:00;19.60;;;9.55;;
72601;SDS011;60644;55.858;37.390;2023-07-08T01:53:29;16.03;;;9.73;;
72601;SDS011;60644;55.858;37.390;2023-07-08T01:55:54;16.98;;;9.60;;
72601;SDS011;60644;55.858;37.390;2023-07-08T01:58:20;16.58;;;10.07;;
72601;SDS011;60644;55.858;37.390;2023-07-08T02:00:45;15.90;;;9.47;;
72601;SDS011;60644;55.858;37.390;2023-07-08T02:03:14;16.83;;;10.60;;
72601;SDS011;60644;55.858;37.390;2023-07-08T02:05:39;16.80;;;10.65;;
72601;SDS011;60644;55.858;37.390;2023-07-08T02:08:05;17.10;;;9.50;;
72601;SDS011;60644;55.858;37.390;2023-07-08T02:10:30;15.03;;;9.87;;
72601;SDS011;60644;55.858;37.390;2023-07-08T02:12:59;15.18;;;10.05;;
72601;SDS011;60644;55.858;37.390;2023-07-08T02:15:25;16.20;;;10.30;;
72601;SDS011;60644;55.858;37.390;2023-07-08T02:17:51;15.57;;;9.20;;
72601;SDS011;60644;55.858;37.390;2023-07-08T02:20:16;15.65;;;10.23;;
72601;SDS011;60644;55.858;37.390;2023-07-08T02:22:42;14.63;;;10.07;;
72601;SDS011;60644;55.858;37.390;2023-07-08T02:25:08;14.87;;;9.37;;
72601;SDS011;60644;55.858;37.390;2023-07-08T02:27:37;14.40;;;10.00;;
72601;SDS011;60644;55.858;37.390;2023-07-08T02:30:03;17.38;;;9.98;;
72601;SDS011;60644;55.858;37.390;2023-07-08T02:32:29;17.30;;;9.55;;
72601;SDS011;60644;55.858;37.390;2023-07-08T02:34:55;13.77;;;8.90;;
72601;SDS011;60644;55.858;37.390;2023-07-08T02:37:20;17.10;;;9.88;;
72601;SDS011;60644;55.858;37.390;2023-07-08T02:39:46;15.73;;;9.97;;
72601;SDS011;60644;55.858;37.390;2023-07-08T02:42:12;15.73;;;9.90;;
72601;SDS011;60644;55.858;37.390;2023-07-08T02:44:37;13.93;;;8.60;;
72601;SDS011;60644;55.858;37.390;2023-07-08T02:47:03;13.80;;;9.03;;
72601;SDS011;60644;55.858;37.390;2023-07-08T02:49:29;15.55;;;9.25;;
72601;SDS011;60644;55.858;37.390;2023-07-08T02:51:55;13.68;;;8.23;;
72601;SDS011;60644;55.858;37.390;2023-07-08T02:54:20;12.73;;;8.70;;
72601;SDS011;60644;55.858;37.390;2023-07-08T02:56:46;13.85;;;8.13;;
72601;SDS011;60644;55.858;37.390;2023-07-08T02:59:16;16.15;;;9.88;;
72601;SDS011;60644;55.858;37.390;2023-07-08T03:01:41;14.40;;;8.50;;
72601;SDS011;60644;55.858;37.390;2023-07-08T03:04:08;13.52;;;9.00;;
72601;SDS011;60644;55.858;37.390;2023-07-08T03:06:34;13.73;;;8.38;;
72601;SDS011;60644;55.858;37.390;2023-07-08T03:09:00;15.33;;;8.83;;
72601;SDS011;60644;55.858;37.390;2023-07-08T03:11:26;15.07;;;8.77;;
72601;SDS011;60644;55.858;37.390;2023-07-08T03:13:52;16.85;;;9.52;;
72601;SDS011;60644;55.858;37.390;2023-07-08T03:16:18;16.33;;;9.80;;
72601;SDS011;60644;55.858;37.390;2023-07-08T03:18:43;14.00;;;9.23;;
72601;SDS011;60644;55.858;37.390;2023-07-08T03:21:14;14.30;;;8.90;;
72601;SDS011;60644;55.858;37.390;2023-07-08T03:23:40;13.65;;;8.80;;
72601;SDS011;60644;55.858;37.390;2023-07-08T03:26:07;15.23;;;9.45;;
72601;SDS011;60644;55.858;37.390;2023-07-08T03:28:32;17.92;;;9.77;;
72601;SDS011;60644;55.858;37.390;2023-07-08T03:30:59;14.70;;;9.05;;
72601;SDS011;60644;55.858;37.390;2023-07-08T03:33:25;14.23;;;8.70;;
72601;SDS011;60644;55.858;37.390;2023-07-08T03:35:53;17.10;;;9.70;;
72601;SDS011;60644;55.858;37.390;2023-07-08T03:38:19;14.87;;;8.93;;
72601;SDS011;60644;55.858;37.390;2023-07-08T03:40:45;14.98;;;8.70;;
72601;SDS011;60644;55.858;37.390;2023-07-08T03:43:11;13.27;;;8.48;;
72601;SDS011;60644;55.858;37.390;2023-07-08T03:45:37;17.13;;;8.98;;
72601;SDS011;60644;55.858;37.390;2023-07-08T03:48:03;17.10;;;8.40;;
72601;SDS011;60644;55.858;37.390;2023-07-08T03:50:30;15.40;;;8.77;;
72601;SDS011;60644;55.858;37.390;2023-07-08T03:52:57;13.38;;;9.02;;
72601;SDS011;60644;55.858;37.390;2023-07-08T03:55:26;18.33;;;8.82;;
72601;SDS011;60644;55.858;37.390;2023-07-08T03:57:53;13.38;;;8.68;;
72601;SDS011;60644;55.858;37.390;2023-07-08T04:00:19;15.45;;;9.07;;
72601;SDS011;60644;55.858;37.390;2023-07-08T04:02:45;16.37;;;9.40;;
72601;SDS011;60644;55.858;37.390;2023-07-08T04:05:18;14.57;;;9.10;;
72601;SDS011;60644;55.858;37.390;2023-07-08T04:07:44;13.77;;;7.63;;
72601;SDS011;60644;55.858;37.390;2023-07-08T04:10:10;12.50;;;8.05;;
72601;SDS011;60644;55.858;37.390;2023-07-08T04:12:36;12.63;;;8.10;;
72601;SDS011;60644;55.858;37.390;2023-07-08T04:15:02;12.05;;;7.30;;
72601;SDS011;60644;55.858;37.390;2023-07-08T04:17:29;13.70;;;8.27;;
72601;SDS011;60644;55.858;37.390;2023-07-08T04:19:55;14.27;;;8.27;;
72601;SDS011;60644;55.858;37.390;2023-07-08T04:22:31;14.52;;;8.45;;
72601;SDS011;60644;55.858;37.390;2023-07-08T04:24:57;15.43;;;8.65;;
72601;SDS011;60644;55.858;37.390;2023-07-08T04:27:26;13.53;;;8.27;;
72601;SDS011;60644;55.858;37.390;2023-07-08T04:29:52;14.10;;;7.97;;
72601;SDS011;60644;55.858;37.390;2023-07-08T04:32:17;13.05;;;8.30;;
72601;SDS011;60644;55.858;37.390;2023-07-08T04:34:43;13.37;;;8.03;;
72601;SDS011;60644;55.858;37.390;2023-07-08T04:37:10;12.10;;;7.63;;
72601;SDS011;60644;55.858;37.390;2023-07-08T04:39:36;11.90;;;7.30;;
72601;SDS011;60644;55.858;37.390;2023-07-08T04:42:02;13.88;;;8.57;;
72601;SDS011;60644;55.858;37.390;2023-07-08T04:44:28;12.93;;;8.50;;
72601;SDS011;60644;55.858;37.390;2023-07-08T04:46:57;12.77;;;7.55;;
72601;SDS011;60644;55.858;37.390;2023-07-08T04:49:23;11.90;;;7.43;;
72601;SDS011;60644;55.858;37.390;2023-07-08T04:51:50;13.07;;;7.33;;
72601;SDS011;60644;55.858;37.390;2023-07-08T04:54:16;13.82;;;8.00;;
72601;SDS011;60644;55.858;37.390;2023-07-08T04:56:46;13.48;;;7.15;;
72601;SDS011;60644;55.858;37.390;2023-07-08T04:59:15;13.13;;;7.93;;
72601;SDS011;60644;55.858;37.390;2023-07-08T05:01:42;11.98;;;7.65;;
72601;SDS011;60644;55.858;37.390;2023-07-08T05:04:08;13.27;;;7.72;;
72601;SDS011;60644;55.858;37.390;2023-07-08T05:06:34;12.50;;;8.18;;
72601;SDS011;60644;55.858;37.390;2023-07-08T05:09:00;11.80;;;7.80;;
72601;SDS011;60644;55.858;37.390;2023-07-08T05:11:26;11.80;;;7.05;;
72601;SDS011;60644;55.858;37.390;2023-07-08T05:13:52;12.13;;;7.32;;
72601;SDS011;60644;55.858;37.390;2023-07-08T05:16:18;11.33;;;7.40;;
72601;SDS011;60644;55.858;37.390;2023-07-08T05:18:44;11.35;;;6.85;;
72601;SDS011;60644;55.858;37.390;2023-07-08T05:21:10;13.33;;;7.60;;
72601;SDS011;60644;55.858;37.390;2023-07-08T05:23:36;11.38;;;6.55;;
72601;SDS011;60644;55.858;37.390;2023-07-08T05:26:02;13.68;;;7.05;;
72601;SDS011;60644;55.858;37.390;2023-07-08T05:28:28;13.87;;;6.43;;
72601;SDS011;60644;55.858;37.390;2023-07-08T05:30:54;12.35;;;6.85;;
72601;SDS011;60644;55.858;37.390;2023-07-08T05:33:27;10.93;;;6.82;;
72601;SDS011;60644;55.858;37.390;2023-07-08T05:35:53;13.68;;;7.30;;
72601;SDS011;60644;55.858;37.390;2023-07-08T05:38:18;13.17;;;6.50;;
72601;SDS011;60644;55.858;37.390;2023-07-08T05:40:48;12.77;;;6.75;;
72601;SDS011;60644;55.858;37.390;2023-07-08T05:43:15;12.20;;;6.93;;
72601;SDS011;60644;55.858;37.390;2023-07-08T05:45:41;14.35;;;7.30;;
72601;SDS011;60644;55.858;37.390;2023-07-08T05:48:06;13.63;;;7.30;;
72601;SDS011;60644;55.858;37.390;2023-07-08T05:50:32;13.27;;;7.90;;
72601;SDS011;60644;55.858;37.390;2023-07-08T05:52:57;11.05;;;6.70;;
72601;SDS011;60644;55.858;37.390;2023-07-08T05:55:23;13.33;;;6.53;;
72601;SDS011;60644;55.858;37.390;2023-07-08T05:57:49;11.32;;;6.93;;
72601;SDS011;60644;55.858;37.390;2023-07-08T06:00:14;11.77;;;6.87;;
72601;SDS011;60644;55.858;37.390;2023-07-08T06:02:40;10.35;;;6.20;;
72601;SDS011;60644;55.858;37.390;2023-07-08T06:05:06;11.00;;;6.53;;
72601;SDS011;60644;55.858;37.390;2023-07-08T06:07:32;10.52;;;6.28;;
72601;SDS011;60644;55.858;37.390;2023-07-08T06:09:58;11.20;;;6.38;;
72601;SDS011;60644;55.858;37.390;2023-07-08T06:12:24;11.27;;;6.35;;
72601;SDS011;60644;55.858;37.390;2023-07-08T06:14:50;10.77;;;6.27;;
72601;SDS011;60644;55.858;37.390;2023-07-08T06:17:16;14.93;;;5.80;;
72601;SDS011;60644;55.858;37.390;2023-07-08T06:19:42;12.50;;;6.20;;
72601;SDS011;60644;55.858;37.390;2023-07-08T06:22:08;12.70;;;6.40;;
72601;SDS011;60644;55.858;37.390;2023-07-08T06:24:34;10.38;;;6.22;;
72601;SDS011;60644;55.858;37.390;2023-07-08T06:27:00;13.65;;;6.95;;
72601;SDS011;60644;55.858;37.390;2023-07-08T06:29:25;12.53;;;6.63;;
72601;SDS011;60644;55.858;37.390;2023-07-08T06:31:51;9.35;;;5.55;;
72601;SDS011;60644;55.858;37.390;2023-07-08T06:34:17;11.20;;;5.83;;
72601;SDS011;60644;55.858;37.390;2023-07-08T06:36:43;10.23;;;6.53;;
72601;SDS011;60644;55.858;37.390;2023-07-08T06:39:09;10.57;;;6.20;;
72601;SDS011;60644;55.858;37.390;2023-07-08T06:41:39;10.57;;;6.20;;
72601;SDS011;60644;55.858;37.390;2023-07-08T06:44:05;11.45;;;6.35;;
72601;SDS011;60644;55.858;37.390;2023-07-08T06:46:31;10.30;;;5.97;;
72601;SDS011;60644;55.858;37.390;2023-07-08T06:48:56;10.60;;;6.27;;
72601;SDS011;60644;55.858;37.390;2023-07-08T06:51:22;16.10;;;6.23;;
72601;SDS011;60644;55.858;37.390;2023-07-08T06:53:51;11.05;;;5.78;;
72601;SDS011;60644;55.858;37.390;2023-07-08T06:56:16;11.27;;;6.18;;
72601;SDS011;60644;55.858;37.390;2023-07-08T06:58:44;10.90;;;6.40;;
72601;SDS011;60644;55.858;37.390;2023-07-08T07:01:10;10.47;;;6.33;;
72601;SDS011;60644;55.858;37.390;2023-07-08T07:03:36;10.63;;;6.43;;
72601;SDS011;60644;55.858;37.390;2023-07-08T07:06:01;12.33;;;6.67;;
72601;SDS011;60644;55.858;37.390;2023-07-08T07:08:27;11.60;;;5.90;;
72601;SDS011;60644;55.858;37.390;2023-07-08T07:10:53;12.43;;;7.00;;
72601;SDS011;60644;55.858;37.390;2023-07-08T07:13:18;11.37;;;6.40;;
72601;SDS011;60644;55.858;37.390;2023-07-08T07:15:44;11.82;;;6.57;;
72601;SDS011;60644;55.858;37.390;2023-07-08T07:18:09;11.43;;;6.97;;
72601;SDS011;60644;55.858;37.390;2023-07-08T07:20:36;12.90;;;6.65;;
72601;SDS011;60644;55.858;37.390;2023-07-08T07:23:05;10.00;;;6.30;;
72601;SDS011;60644;55.858;37.390;2023-07-08T07:25:30;11.53;;;6.50;;
72601;SDS011;60644;55.858;37.390;2023-07-08T07:27:56;10.50;;;6.30;;
72601;SDS011;60644;55.858;37.390;2023-07-08T07:30:21;10.88;;;6.03;;
72601;SDS011;60644;55.858;37.390;2023-07-08T07:32:47;11.23;;;6.43;;
72601;SDS011;60644;55.858;37.390;2023-07-08T07:35:13;11.15;;;6.13;;
72601;SDS011;60644;55.858;37.390;2023-07-08T07:37:40;13.00;;;7.15;;
72601;SDS011;60644;55.858;37.390;2023-07-08T07:40:15;11.90;;;6.73;;
72601;SDS011;60644;55.858;37.390;2023-07-08T07:42:41;12.63;;;6.85;;
72601;SDS011;60644;55.858;37.390;2023-07-08T07:45:08;11.88;;;6.85;;
72601;SDS011;60644;55.858;37.390;2023-07-08T07:47:34;11.20;;;6.10;;
72601;SDS011;60644;55.858;37.390;2023-07-08T07:49:59;10.80;;;6.40;;
72601;SDS011;60644;55.858;37.390;2023-07-08T07:52:25;14.57;;;6.95;;
72601;SDS011;60644;55.858;37.390;2023-07-08T07:54:51;12.07;;;6.57;;
72601;SDS011;60644;55.858;37.390;2023-07-08T07:57:20;11.13;;;6.35;;
72601;SDS011;60644;55.858;37.390;2023-07-08T07:59:46;11.45;;;6.50;;
72601;SDS011;60644;55.858;37.390;2023-07-08T08:02:11;10.32;;;6.53;;
72601;SDS011;60644;55.858;37.390;2023-07-08T08:04:37;15.70;;;6.43;;
72601;SDS011;60644;55.858;37.390;2023-07-08T08:07:03;12.07;;;6.13;;
72601;SDS011;60644;55.858;37.390;2023-07-08T08:09:28;14.07;;;6.60;;
72601;SDS011;60644;55.858;37.390;2023-07-08T08:11:54;11.82;;;5.82;;
72601;SDS011;60644;55.858;37.390;2023-07-08T08:14:20;12.17;;;5.77;;
72601;SDS011;60644;55.858;37.390;2023-07-08T08:16:46;10.93;;;6.40;;
72601;SDS011;60644;55.858;37.390;2023-07-08T08:19:11;10.93;;;6.47;;
72601;SDS011;60644;55.858;37.390;2023-07-08T08:21:37;11.52;;;6.32;;
72601;SDS011;60644;55.858;37.390;2023-07-08T08:24:03;9.77;;;5.47;;
72601;SDS011;60644;55.858;37.390;2023-07-08T08:26:28;11.23;;;6.25;;
72601;SDS011;60644;55.858;37.390;2023-07-08T08:28:54;12.03;;;6.27;;
72601;SDS011;60644;55.858;37.390;2023-07-08T08:31:20;10.52;;;5.82;;
72601;SDS011;60644;55.858;37.390;2023-07-08T08:33:46;10.70;;;6.17;;
72601;SDS011;60644;55.858;37.390;2023-07-08T08:36:11;12.37;;;6.40;;
72601;SDS011;60644;55.858;37.390;2023-07-08T08:38:37;11.17;;;5.60;;
72601;SDS011;60644;55.858;37.390;2023-07-08T08:41:03;9.47;;;6.00;;
72601;SDS011;60644;55.858;37.390;2023-07-08T08:43:36;9.43;;;5.80;;
72601;SDS011;60644;55.858;37.390;2023-07-08T08:46:04;10.65;;;5.55;;
72601;SDS011;60644;55.858;37.390;2023-07-08T08:48:31;11.40;;;6.10;;
72601;SDS011;60644;55.858;37.390;2023-07-08T08:51:03;9.10;;;5.18;;
72601;SDS011;60644;55.858;37.390;2023-07-08T08:53:32;10.03;;;5.73;;
72601;SDS011;60644;55.858;37.390;2023-07-08T08:58:42;8.68;;;4.95;;
72601;SDS011;60644;55.858;37.390;2023-07-08T09:01:10;9.88;;;5.40;;
72601;SDS011;60644;55.858;37.390;2023-07-08T09:06:07;8.77;;;5.35;;
72601;SDS011;60644;55.858;37.390;2023-07-08T09:08:35;8.07;;;4.20;;
72601;SDS011;60644;55.858;37.390;2023-07-08T09:11:02;10.73;;;4.90;;
72601;SDS011;60644;55.858;37.390;2023-07-08T09:13:32;9.98;;;5.00;;
72601;SDS011;60644;55.858;37.390;2023-07-08T09:16:02;9.57;;;4.60;;
72601;SDS011;60644;55.858;37.390;2023-07-08T09:18:36;8.20;;;4.13;;
72601;SDS011;60644;55.858;37.390;2023-07-08T09:21:07;7.70;;;4.20;;
72601;SDS011;60644;55.858;37.390;2023-07-08T09:23:38;8.60;;;4.35;;
72601;SDS011;60644;55.858;37.390;2023-07-08T09:26:07;7.57;;;4.03;;
72601;SDS011;60644;55.858;37.390;2023-07-08T09:28:39;7.10;;;3.40;;
72601;SDS011;60644;55.858;37.390;2023-07-08T09:31:05;8.52;;;3.78;;
72601;SDS011;60644;55.858;37.390;2023-07-08T09:33:31;8.07;;;3.70;;
72601;SDS011;60644;55.858;37.390;2023-07-08T09:35:57;7.05;;;3.25;;
72601;SDS011;60644;55.858;37.390;2023-07-08T09:38:22;7.70;;;3.73;;
72601;SDS011;60644;55.858;37.390;2023-07-08T09:40:49;6.35;;;3.28;;
72601;SDS011;60644;55.858;37.390;2023-07-08T09:43:26;7.07;;;3.10;;
72601;SDS011;60644;55.858;37.390;2023-07-08T09:45:52;7.03;;;2.97;;
72601;SDS011;60644;55.858;37.390;2023-07-08T09:48:23;7.32;;;3.40;;
72601;SDS011;60644;55.858;37.390;2023-07-08T09:50:51;6.80;;;2.78;;
72601;SDS011;60644;55.858;37.390;2023-07-08T09:53:17;6.50;;;2.83;;
72601;SDS011;60644;55.858;37.390;2023-07-08T09:55:43;7.63;;;2.60;;
72601;SDS011;60644;55.858;37.390;2023-07-08T09:58:13;6.47;;;2.70;;
72601;SDS011;60644;55.858;37.390;2023-07-08T10:00:40;8.45;;;3.17;;
72601;SDS011;60644;55.858;37.390;2023-07-08T10:03:17;9.90;;;3.40;;
72601;SDS011;60644;55.858;37.390;2023-07-08T10:05:45;7.13;;;2.78;;
72601;SDS011;60644;55.858;37.390;2023-07-08T10:08:14;9.73;;;3.20;;
72601;SDS011;60644;55.858;37.390;2023-07-08T10:10:39;7.25;;;3.17;;
72601;SDS011;60644;55.858;37.390;2023-07-08T10:15:38;7.33;;;2.80;;
72601;SDS011;60644;55.858;37.390;2023-07-08T10:18:07;6.63;;;3.03;;
72601;SDS011;60644;55.858;37.390;2023-07-08T10:20:39;6.97;;;2.80;;
72601;SDS011;60644;55.858;37.390;2023-07-08T10:23:21;7.38;;;2.40;;
72601;SDS011;60644;55.858;37.390;2023-07-08T10:25:58;7.10;;;3.00;;
72601;SDS011;60644;55.858;37.390;2023-07-08T10:28:45;6.97;;;3.00;;
72601;SDS011;60644;55.858;37.390;2023-07-08T10:39:26;5.97;;;2.45;;
72601;SDS011;60644;55.858;37.390;2023-07-08T10:47:23;7.67;;;2.40;;
72601;SDS011;60644;55.858;37.390;2023-07-08T11:00:00;5.30;;;2.00;;
72601;SDS011;60644;55.858;37.390;2023-07-08T11:02:52;4.75;;;1.77;;
72601;SDS011;60644;55.858;37.390;2023-07-08T11:05:44;5.30;;;1.85;;
72601;SDS011;60644;55.858;37.390;2023-07-08T11:08:16;5.33;;;2.10;;
72601;SDS011;60644;55.858;37.390;2023-07-08T11:13:36;7.43;;;2.10;;
72601;SDS011;60644;55.858;37.390;2023-07-08T11:16:06;6.90;;;2.15;;
72601;SDS011;60644;55.858;37.390;2023-07-08T11:21:32;7.07;;;2.43;;
72601;SDS011;60644;55.858;37.390;2023-07-08T11:24:01;7.85;;;2.55;;
72601;SDS011;60644;55.858;37.390;2023-07-08T11:26:33;5.63;;;2.00;;
72601;SDS011;60644;55.858;37.390;2023-07-08T11:29:00;6.43;;;2.00;;
72601;SDS011;60644;55.858;37.390;2023-07-08T11:31:27;5.63;;;2.10;;
72601;SDS011;60644;55.858;37.390;2023-07-08T11:33:55;4.93;;;2.10;;
72601;SDS011;60644;55.858;37.390;2023-07-08T11:36:22;4.90;;;1.95;;
72601;SDS011;60644;55.858;37.390;2023-07-08T11:38:49;4.65;;;2.10;;
72601;SDS011;60644;55.858;37.390;2023-07-08T11:41:18;5.72;;;2.60;;
72601;SDS011;60644;55.858;37.390;2023-07-08T11:46:20;5.57;;;1.97;;
72601;SDS011;60644;55.858;37.390;2023-07-08T11:48:50;5.20;;;2.25;;
72601;SDS011;60644;55.858;37.390;2023-07-08T11:51:18;10.55;;;2.75;;
72601;SDS011;60644;55.858;37.390;2023-07-08T11:53:48;6.00;;;2.42;;
72601;SDS011;60644;55.858;37.390;2023-07-08T11:56:19;7.13;;;2.38;;
72601;SDS011;60644;55.858;37.390;2023-07-08T12:03:46;5.85;;;2.40;;
72601;SDS011;60644;55.858;37.390;2023-07-08T12:08:57;7.75;;;2.30;;
72601;SDS011;60644;55.858;37.390;2023-07-08T12:11:25;5.60;;;2.60;;
72601;SDS011;60644;55.858;37.390;2023-07-08T12:13:58;6.57;;;2.50;;
72601;SDS011;60644;55.858;37.390;2023-07-08T12:16:24;6.68;;;2.53;;
72601;SDS011;60644;55.858;37.390;2023-07-08T12:18:50;7.57;;;3.00;;
72601;SDS011;60644;55.858;37.390;2023-07-08T12:21:16;7.28;;;3.22;;
72601;SDS011;60644;55.858;37.390;2023-07-08T12:23:44;5.77;;;2.67;;
72601;SDS011;60644;55.858;37.390;2023-07-08T12:26:09;8.27;;;2.70;;
72601;SDS011;60644;55.858;37.390;2023-07-08T12:28:37;5.57;;;2.40;;
72601;SDS011;60644;55.858;37.390;2023-07-08T12:31:04;5.18;;;2.20;;
72601;SDS011;60644;55.858;37.390;2023-07-08T12:33:35;5.40;;;2.40;;
72601;SDS011;60644;55.858;37.390;2023-07-08T12:36:02;7.57;;;2.60;;
72601;SDS011;60644;55.858;37.390;2023-07-08T12:38:29;7.30;;;2.45;;
72601;SDS011;60644;55.858;37.390;2023-07-08T12:40:57;5.73;;;2.20;;
72601;SDS011;60644;55.858;37.390;2023-07-08T12:43:23;5.88;;;2.00;;
72601;SDS011;60644;55.858;37.390;2023-07-08T12:45:49;6.75;;;2.72;;
72601;SDS011;60644;55.858;37.390;2023-07-08T12:48:14;5.83;;;2.20;;
72601;SDS011;60644;55.858;37.390;2023-07-08T12:50:40;6.63;;;2.70;;
72601;SDS011;60644;55.858;37.390;2023-07-08T12:53:05;8.15;;;2.67;;
72601;SDS011;60644;55.858;37.390;2023-07-08T12:55:38;6.60;;;2.42;;
72601;SDS011;60644;55.858;37.390;2023-07-08T12:58:04;7.07;;;2.60;;
72601;SDS011;60644;55.858;37.390;2023-07-08T13:00:31;5.78;;;2.42;;
72601;SDS011;60644;55.858;37.390;2023-07-08T13:03:13;5.45;;;2.13;;
72601;SDS011;60644;55.858;37.390;2023-07-08T13:05:40;5.63;;;2.05;;
72601;SDS011;60644;55.858;37.390;2023-07-08T13:08:11;6.63;;;2.10;;
72601;SDS011;60644;55.858;37.390;2023-07-08T13:10:37;6.10;;;2.33;;
72601;SDS011;60644;55.858;37.390;2023-07-08T13:13:03;7.07;;;2.15;;
72601;SDS011;60644;55.858;37.390;2023-07-08T13:15:32;5.57;;;1.80;;
72601;SDS011;60644;55.858;37.390;2023-07-08T13:17:59;6.47;;;1.70;;
72601;SDS011;60644;55.858;37.390;2023-07-08T13:20:24;5.35;;;1.80;;
72601;SDS011;60644;55.858;37.390;2023-07-08T13:22:57;4.30;;;1.60;;
72601;SDS011;60644;55.858;37.390;2023-07-08T13:25:31;5.30;;;1.92;;
72601;SDS011;60644;55.858;37.390;2023-07-08T13:28:01;5.38;;;1.63;;
72601;SDS011;60644;55.858;37.390;2023-07-08T13:30:28;5.80;;;1.92;;
72601;SDS011;60644;55.858;37.390;2023-07-08T13:32:55;5.90;;;2.08;;
72601;SDS011;60644;55.858;37.390;2023-07-08T13:35:22;7.60;;;2.23;;
72601;SDS011;60644;55.858;37.390;2023-07-08T13:37:48;5.47;;;1.90;;
72601;SDS011;60644;55.858;37.390;2023-07-08T13:40:15;6.95;;;2.20;;
72601;SDS011;60644;55.858;37.390;2023-07-08T13:42:51;4.78;;;1.88;;
72601;SDS011;60644;55.858;37.390;2023-07-08T13:45:19;7.30;;;2.50;;
72601;SDS011;60644;55.858;37.390;2023-07-08T13:47:56;8.30;;;2.40;;
72601;SDS011;60644;55.858;37.390;2023-07-08T13:50:23;5.55;;;1.90;;
72601;SDS011;60644;55.858;37.390;2023-07-08T13:52:55;11.68;;;3.45;;
72601;SDS011;60644;55.858;37.390;2023-07-08T13:55:21;6.35;;;2.30;;
72601;SDS011;60644;55.858;37.390;2023-07-08T13:57:54;7.20;;;2.20;;
72601;SDS011;60644;55.858;37.390;2023-07-08T14:00:20;7.03;;;2.33;;
72601;SDS011;60644;55.858;37.390;2023-07-08T14:02:46;5.30;;;1.83;;
72601;SDS011;60644;55.858;37.390;2023-07-08T14:05:12;7.10;;;2.70;;
72601;SDS011;60644;55.858;37.390;2023-07-08T14:07:39;5.43;;;2.15;;
72601;SDS011;60644;55.858;37.390;2023-07-08T14:10:11;4.97;;;1.88;;
72601;SDS011;60644;55.858;37.390;2023-07-08T14:12:36;5.07;;;2.10;;
72601;SDS011;60644;55.858;37.390;2023-07-08T14:15:02;5.15;;;2.10;;
72601;SDS011;60644;55.858;37.390;2023-07-08T14:17:29;8.90;;;2.50;;
72601;SDS011;60644;55.858;37.390;2023-07-08T14:19:55;5.53;;;2.27;;
72601;SDS011;60644;55.858;37.390;2023-07-08T14:22:25;11.90;;;2.92;;
72601;SDS011;60644;55.858;37.390;2023-07-08T14:24:51;7.20;;;2.30;;
72601;SDS011;60644;55.858;37.390;2023-07-08T14:27:16;7.60;;;2.60;;
72601;SDS011;60644;55.858;37.390;2023-07-08T14:29:46;6.50;;;2.45;;
72601;SDS011;60644;55.858;37.390;2023-07-08T14:32:12;6.43;;;2.30;;
72601;SDS011;60644;55.858;37.390;2023-07-08T14:34:39;6.75;;;2.20;;
72601;SDS011;60644;55.858;37.390;2023-07-08T14:37:15;5.75;;;2.47;;
72601;SDS011;60644;55.858;37.390;2023-07-08T14:39:45;7.15;;;2.20;;
72601;SDS011;60644;55.858;37.390;2023-07-08T14:42:11;4.30;;;1.60;;
72601;SDS011;60644;55.858;37.390;2023-07-08T14:44:37;6.40;;;2.00;;
72601;SDS011;60644;55.858;37.390;2023-07-08T14:47:10;4.85;;;1.90;;
72601;SDS011;60644;55.858;37.390;2023-07-08T14:49:36;4.20;;;1.90;;
72601;SDS011;60644;55.858;37.390;2023-07-08T14:52:01;5.07;;;1.83;;
72601;SDS011;60644;55.858;37.390;2023-07-08T14:54:27;5.50;;;2.10;;
72601;SDS011;60644;55.858;37.390;2023-07-08T14:56:53;5.15;;;2.30;;
72601;SDS011;60644;55.858;37.390;2023-07-08T14:59:21;7.00;;;2.10;;
72601;SDS011;60644;55.858;37.390;2023-07-08T15:01:47;4.88;;;1.63;;
72601;SDS011;60644;55.858;37.390;2023-07-08T15:04:14;5.35;;;2.10;;
72601;SDS011;60644;55.858;37.390;2023-07-08T15:06:40;5.88;;;2.28;;
72601;SDS011;60644;55.858;37.390;2023-07-08T15:09:06;5.30;;;1.97;;
72601;SDS011;60644;55.858;37.390;2023-07-08T15:11:32;5.00;;;1.92;;
72601;SDS011;60644;55.858;37.390;2023-07-08T15:13:58;5.18;;;2.10;;
72601;SDS011;60644;55.858;37.390;2023-07-08T15:16:24;5.25;;;2.30;;
72601;SDS011;60644;55.858;37.390;2023-07-08T15:18:50;6.23;;;2.30;;
72601;SDS011;60644;55.858;37.390;2023-07-08T15:21:15;6.27;;;2.67;;
72601;SDS011;60644;55.858;37.390;2023-07-08T15:23:41;6.13;;;2.08;;